sensor_id;sensor_type;location;lat;lon;timestamp;temperature;humidity
45323;DHT22;31382;50.200;8.674;2022-09-16T00:00:57;15.10;99.90
45323;DHT22;31382;50.200;8.674;2022-09-16T00:05:59;15.10;99.90
45323;DHT22;31382;50.200;8.674;2022-09-16T00:11:01;15.10;99.90
45323;DHT22;31382;50.200;8.674;2022-09-16T00:16:10;15.10;99.90
45323;DHT22;31382;50.200;8.674;2022-09-16T00:21:13;15.00;99.90
45323;DHT22;31382;50.200;8.674;2022-09-16T00:26:15;15.00;99.90
45323;DHT22;31382;50.200;8.674;2022-09-16T00:31:17;15.00;99.90
45323;DHT22;31382;50.200;8.674;2022-09-16T00:36:19;14.90;99.90
45323;DHT22;31382;50.200;8.674;2022-09-16T00:41:27;14.90;99.90
45323;DHT22;31382;50.200;8.674;2022-09-16T00:46:41;14.90;99.90
45323;DHT22;31382;50.200;8.674;2022-09-16T00:51:45;14.80;99.90
45323;DHT22;31382;50.200;8.674;2022-09-16T00:56:52;14.80;99.90
45323;DHT22;31382;50.200;8.674;2022-09-16T01:01:55;14.80;99.90
45323;DHT22;31382;50.200;8.674;2022-09-16T01:06:59;14.80;99.90
45323;DHT22;31382;50.200;8.674;2022-09-16T01:12:01;14.70;99.90
45323;DHT22;31382;50.200;8.674;2022-09-16T01:17:15;14.70;99.90
45323;DHT22;31382;50.200;8.674;2022-09-16T01:27:30;14.50;99.90
45323;DHT22;31382;50.200;8.674;2022-09-16T01:32:52;14.50;99.90
45323;DHT22;31382;50.200;8.674;2022-09-16T01:38:08;14.40;99.90
45323;DHT22;31382;50.200;8.674;2022-09-16T01:48:47;14.30;99.90
45323;DHT22;31382;50.200;8.674;2022-09-16T01:54:07;14.40;99.90
45323;DHT22;31382;50.200;8.674;2022-09-16T01:59:18;14.30;99.90
45323;DHT22;31382;50.200;8.674;2022-09-16T02:04:30;14.30;99.90
45323;DHT22;31382;50.200;8.674;2022-09-16T02:09:39;14.30;99.90
45323;DHT22;31382;50.200;8.674;2022-09-16T02:14:44;14.30;99.90
45323;DHT22;31382;50.200;8.674;2022-09-16T02:19:52;14.30;99.90
45323;DHT22;31382;50.200;8.674;2022-09-16T02:24:58;14.30;99.90
45323;DHT22;31382;50.200;8.674;2022-09-16T02:30:13;14.30;99.90
45323;DHT22;31382;50.200;8.674;2022-09-16T02:35:19;14.20;99.90
45323;DHT22;31382;50.200;8.674;2022-09-16T02:40:30;14.20;99.90
45323;DHT22;31382;50.200;8.674;2022-09-16T02:45:44;14.20;99.90
45323;DHT22;31382;50.200;8.674;2022-09-16T02:50:53;14.20;99.90
45323;DHT22;31382;50.200;8.674;2022-09-16T02:56:02;14.20;99.90
45323;DHT22;31382;50.200;8.674;2022-09-16T03:01:06;14.20;99.90
45323;DHT22;31382;50.200;8.674;2022-09-16T03:17:07;14.10;99.90
45323;DHT22;31382;50.200;8.674;2022-09-16T03:27:43;14.00;99.90
45323;DHT22;31382;50.200;8.674;2022-09-16T03:32:59;14.00;99.90
45323;DHT22;31382;50.200;8.674;2022-09-16T03:38:05;14.00;99.90
45323;DHT22;31382;50.200;8.674;2022-09-16T03:43:11;13.90;99.90
45323;DHT22;31382;50.200;8.674;2022-09-16T03:48:13;14.00;99.90
45323;DHT22;31382;50.200;8.674;2022-09-16T03:53:15;13.90;99.90
45323;DHT22;31382;50.200;8.674;2022-09-16T03:58:16;13.90;99.90
45323;DHT22;31382;50.200;8.674;2022-09-16T04:03:18;14.00;99.90
45323;DHT22;31382;50.200;8.674;2022-09-16T04:08:20;13.90;99.90
45323;DHT22;31382;50.200;8.674;2022-09-16T04:13:22;13.90;99.90
45323;DHT22;31382;50.200;8.674;2022-09-16T04:18:24;13.80;99.90
45323;DHT22;31382;50.200;8.674;2022-09-16T04:23:27;13.80;99.90
45323;DHT22;31382;50.200;8.674;2022-09-16T04:28:30;13.70;99.90
45323;DHT22;31382;50.200;8.674;2022-09-16T04:33:34;13.70;99.90
45323;DHT22;31382;50.200;8.674;2022-09-16T04:38:36;13.60;99.90
45323;DHT22;31382;50.200;8.674;2022-09-16T04:43:38;13.60;99.90
45323;DHT22;31382;50.200;8.674;2022-09-16T04:48:40;13.60;99.90
45323;DHT22;31382;50.200;8.674;2022-09-16T04:53:42;13.50;99.90
45323;DHT22;31382;50.200;8.674;2022-09-16T04:58:46;13.40;99.90
45323;DHT22;31382;50.200;8.674;2022-09-16T05:03:51;13.40;99.90
45323;DHT22;31382;50.200;8.674;2022-09-16T05:08:54;13.40;99.90
45323;DHT22;31382;50.200;8.674;2022-09-16T05:14:04;13.30;99.90
45323;DHT22;31382;50.200;8.674;2022-09-16T05:19:06;13.30;99.90
45323;DHT22;31382;50.200;8.674;2022-09-16T05:24:09;13.30;99.90
45323;DHT22;31382;50.200;8.674;2022-09-16T05:29:13;13.30;99.90
45323;DHT22;31382;50.200;8.674;2022-09-16T05:34:20;13.30;99.90
45323;DHT22;31382;50.200;8.674;2022-09-16T05:39:23;13.30;99.90
45323;DHT22;31382;50.200;8.674;2022-09-16T05:44:27;13.30;99.90
45323;DHT22;31382;50.200;8.674;2022-09-16T05:49:29;13.40;99.90
45323;DHT22;31382;50.200;8.674;2022-09-16T05:54:31;13.40;99.90
45323;DHT22;31382;50.200;8.674;2022-09-16T05:59:32;13.40;99.90
45323;DHT22;31382;50.200;8.674;2022-09-16T06:04:34;13.40;99.90
45323;DHT22;31382;50.200;8.674;2022-09-16T06:09:36;13.50;99.90
45323;DHT22;31382;50.200;8.674;2022-09-16T06:14:37;13.50;99.90
45323;DHT22;31382;50.200;8.674;2022-09-16T06:19:39;13.60;99.90
45323;DHT22;31382;50.200;8.674;2022-09-16T06:24:41;13.70;99.90
45323;DHT22;31382;50.200;8.674;2022-09-16T06:29:42;13.80;99.90
45323;DHT22;31382;50.200;8.674;2022-09-16T06:34:44;13.90;99.90
45323;DHT22;31382;50.200;8.674;2022-09-16T06:39:46;14.00;99.90
45323;DHT22;31382;50.200;8.674;2022-09-16T06:44:47;14.10;99.90
45323;DHT22;31382;50.200;8.674;2022-09-16T06:49:49;14.20;99.90
45323;DHT22;31382;50.200;8.674;2022-09-16T06:54:51;14.30;99.90
45323;DHT22;31382;50.200;8.674;2022-09-16T06:59:52;14.20;99.90
45323;DHT22;31382;50.200;8.674;2022-09-16T07:04:54;14.30;99.90
45323;DHT22;31382;50.200;8.674;2022-09-16T07:09:55;14.50;99.90
45323;DHT22;31382;50.200;8.674;2022-09-16T07:14:57;14.60;99.90
45323;DHT22;31382;50.200;8.674;2022-09-16T07:19:59;14.50;99.90
45323;DHT22;31382;50.200;8.674;2022-09-16T07:25:00;14.60;99.90
45323;DHT22;31382;50.200;8.674;2022-09-16T07:30:02;14.60;99.90
45323;DHT22;31382;50.200;8.674;2022-09-16T07:35:09;14.70;99.90
45323;DHT22;31382;50.200;8.674;2022-09-16T07:40:11;14.70;99.90
45323;DHT22;31382;50.200;8.674;2022-09-16T07:45:14;15.20;99.90
45323;DHT22;31382;50.200;8.674;2022-09-16T07:50:16;15.20;99.90
45323;DHT22;31382;50.200;8.674;2022-09-16T07:55:17;15.10;99.90
45323;DHT22;31382;50.200;8.674;2022-09-16T08:00:20;15.10;99.90
45323;DHT22;31382;50.200;8.674;2022-09-16T08:05:22;15.10;99.90
45323;DHT22;31382;50.200;8.674;2022-09-16T08:10:24;15.20;99.90
45323;DHT22;31382;50.200;8.674;2022-09-16T08:15:31;15.30;99.90
45323;DHT22;31382;50.200;8.674;2022-09-16T08:20:32;15.10;99.90
45323;DHT22;31382;50.200;8.674;2022-09-16T08:25:34;15.10;99.90
45323;DHT22;31382;50.200;8.674;2022-09-16T08:30:36;15.20;99.90
45323;DHT22;31382;50.200;8.674;2022-09-16T08:35:38;15.10;99.90
45323;DHT22;31382;50.200;8.674;2022-09-16T08:40:49;15.10;99.90
45323;DHT22;31382;50.200;8.674;2022-09-16T08:50:56;15.60;99.90
45323;DHT22;31382;50.200;8.674;2022-09-16T08:56:02;15.60;99.90
45323;DHT22;31382;50.200;8.674;2022-09-16T09:12:24;15.90;99.90
45323;DHT22;31382;50.200;8.674;2022-09-16T09:17:48;16.20;99.90
45323;DHT22;31382;50.200;8.674;2022-09-16T09:23:12;16.30;99.90
45323;DHT22;31382;50.200;8.674;2022-09-16T09:44:45;16.00;99.90
45323;DHT22;31382;50.200;8.674;2022-09-16T09:49:54;15.70;99.90
45323;DHT22;31382;50.200;8.674;2022-09-16T09:55:12;15.80;99.90
45323;DHT22;31382;50.200;8.674;2022-09-16T10:00:18;16.10;99.90
45323;DHT22;31382;50.200;8.674;2022-09-16T10:05:24;16.10;99.90
45323;DHT22;31382;50.200;8.674;2022-09-16T10:10:30;16.00;99.90
45323;DHT22;31382;50.200;8.674;2022-09-16T10:15:33;15.90;99.90
45323;DHT22;31382;50.200;8.674;2022-09-16T10:20:37;15.80;99.90
45323;DHT22;31382;50.200;8.674;2022-09-16T10:25:39;15.90;99.90
45323;DHT22;31382;50.200;8.674;2022-09-16T10:30:46;15.90;99.90
45323;DHT22;31382;50.200;8.674;2022-09-16T10:35:52;16.00;99.90
45323;DHT22;31382;50.200;8.674;2022-09-16T10:41:07;16.00;99.90
45323;DHT22;31382;50.200;8.674;2022-09-16T10:46:13;16.00;99.90
45323;DHT22;31382;50.200;8.674;2022-09-16T10:51:23;16.00;99.90
45323;DHT22;31382;50.200;8.674;2022-09-16T10:56:28;16.10;99.90
45323;DHT22;31382;50.200;8.674;2022-09-16T11:07:06;16.20;99.90
45323;DHT22;31382;50.200;8.674;2022-09-16T11:40:07;17.30;99.90
45323;DHT22;31382;50.200;8.674;2022-09-16T11:56:32;16.70;99.90
45323;DHT22;31382;50.200;8.674;2022-09-16T12:01:45;16.40;99.90
45323;DHT22;31382;50.200;8.674;2022-09-16T12:12:17;16.20;99.90
45323;DHT22;31382;50.200;8.674;2022-09-16T12:17:22;16.40;99.90
45323;DHT22;31382;50.200;8.674;2022-09-16T12:22:49;16.40;99.90
45323;DHT22;31382;50.200;8.674;2022-09-16T12:27:59;16.30;99.90
45323;DHT22;31382;50.200;8.674;2022-09-16T12:33:19;16.20;99.90
45323;DHT22;31382;50.200;8.674;2022-09-16T12:38:22;16.40;99.90
45323;DHT22;31382;50.200;8.674;2022-09-16T12:54:44;17.10;99.90
45323;DHT22;31382;50.200;8.674;2022-09-16T13:05:17;18.00;99.90
45323;DHT22;31382;50.200;8.674;2022-09-16T13:10:36;18.00;99.90
45323;DHT22;31382;50.200;8.674;2022-09-16T13:16:01;18.60;99.90
45323;DHT22;31382;50.200;8.674;2022-09-16T13:21:26;18.80;99.90
45323;DHT22;31382;50.200;8.674;2022-09-16T13:26:40;18.20;99.90
45323;DHT22;31382;50.200;8.674;2022-09-16T13:31:48;18.50;99.90
45323;DHT22;31382;50.200;8.674;2022-09-16T13:36:50;18.80;99.80
45323;DHT22;31382;50.200;8.674;2022-09-16T13:41:52;19.00;99.10
45323;DHT22;31382;50.200;8.674;2022-09-16T13:46:54;19.20;98.20
45323;DHT22;31382;50.200;8.674;2022-09-16T13:51:55;19.30;99.50
45323;DHT22;31382;50.200;8.674;2022-09-16T13:57:11;19.20;97.20
45323;DHT22;31382;50.200;8.674;2022-09-16T14:02:20;18.90;98.10
45323;DHT22;31382;50.200;8.674;2022-09-16T14:07:46;18.60;97.90
45323;DHT22;31382;50.200;8.674;2022-09-16T14:13:04;18.70;98.30
45323;DHT22;31382;50.200;8.674;2022-09-16T14:18:12;19.10;97.20
45323;DHT22;31382;50.200;8.674;2022-09-16T14:23:16;19.20;96.80
45323;DHT22;31382;50.200;8.674;2022-09-16T14:28:21;19.50;95.80
45323;DHT22;31382;50.200;8.674;2022-09-16T14:33:32;19.10;96.90
45323;DHT22;31382;50.200;8.674;2022-09-16T14:38:41;18.50;97.90
45323;DHT22;31382;50.200;8.674;2022-09-16T14:44:10;18.30;99.20
45323;DHT22;31382;50.200;8.674;2022-09-16T14:49:16;18.20;98.60
45323;DHT22;31382;50.200;8.674;2022-09-16T14:54:21;18.60;99.20
45323;DHT22;31382;50.200;8.674;2022-09-16T14:59:29;19.10;98.20
45323;DHT22;31382;50.200;8.674;2022-09-16T15:04:34;19.00;97.20
45323;DHT22;31382;50.200;8.674;2022-09-16T15:15:22;17.40;99.90
45323;DHT22;31382;50.200;8.674;2022-09-16T15:20:28;16.40;99.90
45323;DHT22;31382;50.200;8.674;2022-09-16T15:25:33;15.80;99.90
45323;DHT22;31382;50.200;8.674;2022-09-16T15:30:45;15.30;99.90
45323;DHT22;31382;50.200;8.674;2022-09-16T15:35:49;15.00;99.90
45323;DHT22;31382;50.200;8.674;2022-09-16T15:41:12;14.80;99.90
45323;DHT22;31382;50.200;8.674;2022-09-16T15:46:21;14.50;99.90
45323;DHT22;31382;50.200;8.674;2022-09-16T15:56:38;14.40;99.90
45323;DHT22;31382;50.200;8.674;2022-09-16T16:01:48;14.40;99.90
45323;DHT22;31382;50.200;8.674;2022-09-16T16:07:00;14.20;99.90
45323;DHT22;31382;50.200;8.674;2022-09-16T16:12:11;14.10;99.90
45323;DHT22;31382;50.200;8.674;2022-09-16T16:17:20;14.40;99.90
45323;DHT22;31382;50.200;8.674;2022-09-16T16:22:21;14.50;99.90
45323;DHT22;31382;50.200;8.674;2022-09-16T16:27:24;14.80;99.90
45323;DHT22;31382;50.200;8.674;2022-09-16T16:32:27;14.90;99.90
45323;DHT22;31382;50.200;8.674;2022-09-16T16:37:28;15.00;99.90
45323;DHT22;31382;50.200;8.674;2022-09-16T16:42:47;15.00;99.90
45323;DHT22;31382;50.200;8.674;2022-09-16T16:47:49;14.90;99.90
45323;DHT22;31382;50.200;8.674;2022-09-16T16:52:51;14.80;99.90
45323;DHT22;31382;50.200;8.674;2022-09-16T16:57:53;14.60;99.90
45323;DHT22;31382;50.200;8.674;2022-09-16T17:02:55;14.50;99.90
45323;DHT22;31382;50.200;8.674;2022-09-16T17:07:57;14.40;99.90
45323;DHT22;31382;50.200;8.674;2022-09-16T17:12:58;14.30;99.90
45323;DHT22;31382;50.200;8.674;2022-09-16T17:18:00;14.20;99.90
45323;DHT22;31382;50.200;8.674;2022-09-16T17:23:02;14.20;99.90
45323;DHT22;31382;50.200;8.674;2022-09-16T17:28:03;14.00;99.90
45323;DHT22;31382;50.200;8.674;2022-09-16T17:33:05;13.90;99.90
45323;DHT22;31382;50.200;8.674;2022-09-16T17:38:07;13.80;99.90
45323;DHT22;31382;50.200;8.674;2022-09-16T17:43:08;13.70;99.90
45323;DHT22;31382;50.200;8.674;2022-09-16T17:48:10;13.60;99.90
45323;DHT22;31382;50.200;8.674;2022-09-16T17:53:12;13.50;99.90
45323;DHT22;31382;50.200;8.674;2022-09-16T17:58:13;13.50;99.90
45323;DHT22;31382;50.200;8.674;2022-09-16T18:03:16;13.40;99.90
45323;DHT22;31382;50.200;8.674;2022-09-16T18:08:17;13.20;99.90
45323;DHT22;31382;50.200;8.674;2022-09-16T18:13:19;13.00;99.90
45323;DHT22;31382;50.200;8.674;2022-09-16T18:18:21;12.90;99.90
45323;DHT22;31382;50.200;8.674;2022-09-16T18:23:23;12.80;99.90
45323;DHT22;31382;50.200;8.674;2022-09-16T18:28:25;12.70;99.90
45323;DHT22;31382;50.200;8.674;2022-09-16T18:33:26;12.60;99.90
45323;DHT22;31382;50.200;8.674;2022-09-16T18:38:29;12.60;99.90
45323;DHT22;31382;50.200;8.674;2022-09-16T18:43:30;12.50;99.90
45323;DHT22;31382;50.200;8.674;2022-09-16T18:48:32;12.50;99.90
45323;DHT22;31382;50.200;8.674;2022-09-16T18:53:34;12.40;99.90
45323;DHT22;31382;50.200;8.674;2022-09-16T18:58:35;12.50;99.90
45323;DHT22;31382;50.200;8.674;2022-09-16T19:03:37;12.40;99.90
45323;DHT22;31382;50.200;8.674;2022-09-16T19:08:39;12.40;99.90
45323;DHT22;31382;50.200;8.674;2022-09-16T19:13:41;12.40;99.90
45323;DHT22;31382;50.200;8.674;2022-09-16T19:18:43;12.30;99.90
45323;DHT22;31382;50.200;8.674;2022-09-16T19:23:46;12.20;99.90
45323;DHT22;31382;50.200;8.674;2022-09-16T19:28:48;12.20;99.90
45323;DHT22;31382;50.200;8.674;2022-09-16T19:33:50;12.20;99.90
45323;DHT22;31382;50.200;8.674;2022-09-16T19:38:53;12.10;99.90
45323;DHT22;31382;50.200;8.674;2022-09-16T19:43:56;12.10;99.90
45323;DHT22;31382;50.200;8.674;2022-09-16T19:48:59;12.00;99.90
45323;DHT22;31382;50.200;8.674;2022-09-16T19:54:01;11.90;99.90
45323;DHT22;31382;50.200;8.674;2022-09-16T19:59:03;11.90;99.90
45323;DHT22;31382;50.200;8.674;2022-09-16T20:04:06;11.80;99.90
45323;DHT22;31382;50.200;8.674;2022-09-16T20:09:10;11.80;99.90
45323;DHT22;31382;50.200;8.674;2022-09-16T20:14:18;11.70;99.90
45323;DHT22;31382;50.200;8.674;2022-09-16T20:19:20;11.80;99.90
45323;DHT22;31382;50.200;8.674;2022-09-16T20:24:23;11.70;99.90
45323;DHT22;31382;50.200;8.674;2022-09-16T20:29:24;11.70;99.90
45323;DHT22;31382;50.200;8.674;2022-09-16T20:34:27;11.60;99.90
45323;DHT22;31382;50.200;8.674;2022-09-16T20:39:29;11.50;99.90
45323;DHT22;31382;50.200;8.674;2022-09-16T20:44:31;11.50;99.90
45323;DHT22;31382;50.200;8.674;2022-09-16T20:49:32;11.50;99.90
45323;DHT22;31382;50.200;8.674;2022-09-16T20:54:34;11.50;99.90
45323;DHT22;31382;50.200;8.674;2022-09-16T20:59:36;11.50;99.90
45323;DHT22;31382;50.200;8.674;2022-09-16T21:04:37;11.50;99.90
45323;DHT22;31382;50.200;8.674;2022-09-16T21:09:39;11.60;99.90
45323;DHT22;31382;50.200;8.674;2022-09-16T21:14:41;11.60;99.90
45323;DHT22;31382;50.200;8.674;2022-09-16T21:19:42;11.60;99.90
45323;DHT22;31382;50.200;8.674;2022-09-16T21:24:44;11.60;99.90
45323;DHT22;31382;50.200;8.674;2022-09-16T21:29:45;11.60;99.90
45323;DHT22;31382;50.200;8.674;2022-09-16T21:34:49;11.60;99.90
45323;DHT22;31382;50.200;8.674;2022-09-16T21:39:50;11.60;99.90
45323;DHT22;31382;50.200;8.674;2022-09-16T21:44:52;11.60;99.90
45323;DHT22;31382;50.200;8.674;2022-09-16T21:49:58;11.60;99.90
45323;DHT22;31382;50.200;8.674;2022-09-16T21:55:01;11.70;99.90
45323;DHT22;31382;50.200;8.674;2022-09-16T22:00:03;11.60;99.90
45323;DHT22;31382;50.200;8.674;2022-09-16T22:05:05;11.60;99.90
45323;DHT22;31382;50.200;8.674;2022-09-16T22:10:07;11.60;99.90
45323;DHT22;31382;50.200;8.674;2022-09-16T22:15:09;11.60;99.90
45323;DHT22;31382;50.200;8.674;2022-09-16T22:20:11;11.50;99.90
45323;DHT22;31382;50.200;8.674;2022-09-16T22:25:13;11.50;99.90
45323;DHT22;31382;50.200;8.674;2022-09-16T22:30:15;11.50;99.90
45323;DHT22;31382;50.200;8.674;2022-09-16T22:35:16;11.40;99.90
45323;DHT22;31382;50.200;8.674;2022-09-16T22:40:18;11.30;99.90
45323;DHT22;31382;50.200;8.674;2022-09-16T22:45:21;11.30;99.90
45323;DHT22;31382;50.200;8.674;2022-09-16T22:50:23;11.30;99.90
45323;DHT22;31382;50.200;8.674;2022-09-16T22:55:24;11.30;99.90
45323;DHT22;31382;50.200;8.674;2022-09-16T23:00:26;11.30;99.90
45323;DHT22;31382;50.200;8.674;2022-09-16T23:05:28;11.30;99.90
45323;DHT22;31382;50.200;8.674;2022-09-16T23:10:29;11.30;99.90
45323;DHT22;31382;50.200;8.674;2022-09-16T23:15:31;11.30;99.90
45323;DHT22;31382;50.200;8.674;2022-09-16T23:20:35;11.30;99.90
45323;DHT22;31382;50.200;8.674;2022-09-16T23:25:36;11.20;99.90
45323;DHT22;31382;50.200;8.674;2022-09-16T23:30:38;11.20;99.90
45323;DHT22;31382;50.200;8.674;2022-09-16T23:35:48;11.10;99.90
45323;DHT22;31382;50.200;8.674;2022-09-16T23:40:50;11.10;99.90
45323;DHT22;31382;50.200;8.674;2022-09-16T23:45:52;11.00;99.90
45323;DHT22;31382;50.200;8.674;2022-09-16T23:50:54;11.00;99.90
45323;DHT22;31382;50.200;8.674;2022-09-16T23:55:56;11.00;99.90
